createdAt,value
2023-02-25T00:01:39.294Z,2.83
2023-02-25T00:04:06.618Z,3.50
2023-02-25T00:06:33.560Z,5.63
2023-02-25T00:09:01.307Z,1.42
2023-02-25T00:11:28.824Z,1.73
2023-02-25T00:13:55.695Z,1.25
2023-02-25T00:16:24.252Z,1.00
2023-02-25T00:18:58.339Z,1.38
2023-02-25T00:21:26.124Z,1.38
2023-02-25T00:24:00.075Z,3.40
2023-02-25T00:26:31.873Z,1.48
2023-02-25T00:28:58.828Z,1.35
2023-02-25T00:31:26.305Z,1.85
2023-02-25T00:33:53.766Z,1.88
2023-02-25T00:36:24.327Z,1.30
2023-02-25T00:38:54.546Z,1.40
2023-02-25T00:41:24.710Z,2.17
2023-02-25T00:43:56.644Z,1.77
2023-02-25T00:46:24.313Z,1.80
2023-02-25T00:48:52.047Z,0.60
2023-02-25T00:51:23.177Z,2.08
2023-02-25T00:56:17.845Z,0.90
2023-02-25T00:58:46.244Z,1.15
2023-02-25T01:01:33.763Z,1.23
2023-02-25T01:04:01.055Z,2.40
2023-02-25T01:06:29.367Z,1.15
2023-02-25T01:08:57.992Z,0.77
2023-02-25T01:11:29.708Z,0.80
2023-02-25T01:13:58.778Z,0.65
2023-02-25T01:16:27.548Z,1.00
2023-02-25T01:18:56.658Z,0.88
2023-02-25T01:21:28.375Z,1.05
2023-02-25T01:24:01.306Z,0.43
2023-02-25T01:26:31.260Z,1.20
2023-02-25T01:28:58.169Z,1.20
2023-02-25T01:31:29.770Z,1.08
2023-02-25T01:34:01.203Z,0.95
2023-02-25T01:36:29.497Z,1.00
2023-02-25T01:38:56.665Z,1.77
2023-02-25T01:41:25.317Z,1.45
2023-02-25T01:44:12.430Z,0.73
2023-02-25T01:46:41.864Z,1.10
2023-02-25T01:49:41.232Z,0.68
2023-02-25T01:52:20.784Z,1.67
2023-02-25T01:54:52.367Z,0.47
2023-02-25T01:57:19.704Z,1.52
2023-02-25T01:59:48.160Z,0.63
2023-02-25T02:02:19.369Z,0.43
2023-02-25T02:04:50.331Z,0.30
2023-02-25T02:07:18.184Z,1.77
2023-02-25T02:09:57.378Z,1.77
2023-02-25T02:12:37.612Z,0.30
2023-02-25T02:15:08.483Z,0.88
2023-02-25T02:18:03.541Z,0.40
2023-02-25T02:20:39.168Z,0.30
2023-02-25T02:23:57.935Z,1.83
2023-02-25T02:26:52.442Z,0.40
2023-02-25T02:29:31.085Z,1.85
2023-02-25T02:32:16.163Z,1.20
2023-02-25T02:35:02.339Z,0.20
2023-02-25T02:37:32.102Z,2.80
2023-02-25T02:40:12.096Z,0.40
2023-02-25T02:43:18.940Z,0.30
2023-02-25T02:46:15.157Z,0.73
2023-02-25T02:49:12.322Z,0.52
2023-02-25T02:51:46.926Z,4.22
2023-02-25T02:54:16.410Z,2.10
2023-02-25T02:56:46.667Z,1.20
2023-02-25T02:59:28.438Z,0.30
2023-02-25T03:02:06.796Z,0.40
2023-02-25T03:04:37.698Z,1.20
2023-02-25T03:07:10.850Z,1.60
2023-02-25T03:09:46.048Z,3.03
2023-02-25T03:12:13.029Z,0.40
2023-02-25T03:14:40.126Z,2.00
2023-02-25T03:17:11.637Z,0.60
2023-02-25T03:20:01.584Z,0.75
2023-02-25T03:22:34.207Z,0.88
2023-02-25T03:25:19.839Z,0.65
2023-02-25T03:27:49.800Z,0.25
2023-02-25T03:30:28.686Z,0.75
2023-02-25T03:33:17.571Z,0.90
2023-02-25T03:35:47.660Z,0.50
2023-02-25T03:38:20.061Z,0.32
2023-02-25T03:40:49.698Z,0.28
2023-02-25T03:43:21.635Z,1.75
2023-02-25T03:45:49.032Z,1.17
2023-02-25T03:48:19.395Z,1.38
2023-02-25T03:50:54.702Z,0.77
2023-02-25T03:53:21.975Z,1.30
2023-02-25T03:55:49.193Z,0.60
2023-02-25T03:58:16.103Z,0.95
2023-02-25T04:00:46.438Z,1.98
2023-02-25T04:03:13.271Z,0.30
2023-02-25T04:05:40.177Z,1.05
2023-02-25T04:08:15.503Z,0.55
2023-02-25T04:10:45.970Z,1.08
2023-02-25T04:13:14.905Z,0.77
2023-02-25T04:15:41.947Z,0.45
2023-02-25T04:18:09.647Z,0.40
2023-02-25T04:20:36.491Z,1.27
2023-02-25T04:23:03.388Z,0.50
2023-02-25T04:25:30.260Z,1.27
2023-02-25T04:27:57.071Z,0.47
2023-02-25T04:30:24.022Z,0.30
2023-02-25T04:32:50.884Z,1.85
2023-02-25T04:35:17.937Z,0.75
2023-02-25T04:37:44.865Z,0.50
2023-02-25T04:40:16.066Z,1.73
2023-02-25T04:45:11.904Z,0.63
2023-02-25T04:47:39.385Z,0.88
2023-02-25T04:50:08.458Z,1.30
2023-02-25T04:52:35.531Z,0.70
2023-02-25T04:55:02.615Z,1.15
2023-02-25T04:57:29.486Z,0.77
2023-02-25T04:59:56.474Z,1.17
2023-02-25T05:02:23.315Z,0.88
2023-02-25T05:04:50.252Z,0.47
2023-02-25T05:07:17.152Z,0.30
2023-02-25T05:09:44.480Z,0.90
2023-02-25T05:12:11.329Z,1.10
2023-02-25T05:14:38.298Z,0.73
2023-02-25T05:17:05.135Z,0.43
2023-02-25T05:19:31.969Z,0.75
2023-02-25T05:21:58.800Z,0.57
2023-02-25T05:24:25.626Z,0.30
2023-02-25T05:26:52.563Z,1.10
2023-02-25T05:29:19.558Z,0.30
2023-02-25T05:31:46.964Z,1.52
2023-02-25T05:34:14.064Z,0.50
2023-02-25T05:36:41.237Z,0.98
2023-02-25T05:39:08.166Z,2.03
2023-02-25T05:41:35.008Z,0.60
2023-02-25T05:44:01.853Z,1.00
2023-02-25T05:46:28.798Z,0.55
2023-02-25T05:48:55.672Z,0.68
2023-02-25T05:51:23.853Z,0.40
2023-02-25T05:53:53.705Z,0.60
2023-02-25T05:56:25.651Z,0.73
2023-02-25T05:58:52.830Z,1.05
2023-02-25T06:01:24.759Z,0.43
2023-02-25T06:03:58.814Z,0.45
2023-02-25T06:06:28.685Z,0.30
2023-02-25T06:08:56.155Z,0.82
2023-02-25T06:11:26.421Z,1.08
2023-02-25T06:13:55.081Z,0.60
2023-02-25T06:16:23.420Z,0.25
2023-02-25T06:18:51.705Z,0.47
2023-02-25T06:21:19.093Z,0.38
2023-02-25T06:23:46.423Z,0.43
2023-02-25T06:26:14.687Z,0.57
2023-02-25T06:28:41.660Z,0.32
2023-02-25T06:31:17.154Z,2.05
2023-02-25T06:33:45.863Z,0.88
2023-02-25T06:36:13.888Z,0.60
2023-02-25T06:38:40.744Z,0.50
2023-02-25T06:41:09.903Z,0.30
2023-02-25T06:43:38.424Z,0.70
2023-02-25T06:46:10.266Z,0.50
2023-02-25T06:48:37.272Z,1.35
2023-02-25T06:51:09.434Z,1.58
2023-02-25T06:53:37.598Z,0.73
2023-02-25T06:56:04.816Z,0.30
2023-02-25T06:58:31.823Z,0.82
2023-02-25T07:00:59.988Z,0.57
2023-02-25T07:03:27.403Z,0.32
2023-02-25T07:05:54.480Z,10.02
2023-02-25T07:08:21.336Z,13.05
2023-02-25T07:10:48.234Z,5.95
2023-02-25T07:13:15.273Z,5.80
2023-02-25T07:15:42.181Z,4.40
2023-02-25T07:18:09.346Z,6.72
2023-02-25T07:20:36.333Z,1.95
2023-02-25T07:23:04.587Z,5.97
2023-02-25T07:25:31.638Z,1.88
2023-02-25T07:27:58.582Z,33.17
2023-02-25T07:30:25.610Z,26.08
2023-02-25T07:32:52.583Z,12.18
2023-02-25T07:35:19.474Z,10.48
2023-02-25T07:37:46.388Z,31.50
2023-02-25T07:40:13.232Z,13.68
2023-02-25T07:42:41.798Z,41.08
2023-02-25T07:45:10.371Z,17.63
2023-02-25T07:47:38.002Z,14.20
2023-02-25T07:50:11.572Z,8.98
2023-02-25T07:52:39.597Z,5.00
2023-02-25T07:55:07.320Z,17.48
2023-02-25T07:57:34.195Z,8.70
2023-02-25T08:00:01.429Z,10.95
2023-02-25T08:02:28.357Z,2.88
2023-02-25T08:04:55.437Z,9.52
2023-02-25T08:07:22.275Z,6.63
2023-02-25T08:09:49.504Z,6.15
2023-02-25T08:12:16.449Z,3.88
2023-02-25T08:14:43.342Z,4.55
2023-02-25T08:17:10.174Z,6.15
2023-02-25T08:19:37.036Z,15.85
2023-02-25T08:22:05.019Z,21.23
2023-02-25T08:24:32.672Z,22.00
2023-02-25T08:26:59.713Z,8.90
2023-02-25T08:29:26.940Z,5.72
2023-02-25T08:31:54.056Z,12.20
2023-02-25T08:34:21.325Z,5.80
2023-02-25T08:36:49.042Z,7.63
2023-02-25T08:39:15.871Z,20.00
2023-02-25T08:41:44.555Z,6.63
2023-02-25T08:44:11.533Z,11.55
2023-02-25T08:46:38.760Z,5.05
2023-02-25T08:49:07.329Z,9.13
2023-02-25T08:51:34.701Z,3.22
2023-02-25T08:54:04.297Z,4.00
2023-02-25T08:56:31.971Z,10.18
2023-02-25T08:58:59.626Z,6.60
2023-02-25T09:01:26.981Z,6.35
2023-02-25T09:03:54.329Z,14.15
2023-02-25T09:06:23.583Z,3.13
2023-02-25T09:08:52.324Z,3.95
2023-02-25T09:11:19.957Z,3.05
2023-02-25T09:13:46.989Z,5.75
2023-02-25T09:16:17.843Z,4.53
2023-02-25T09:18:50.563Z,1.42
2023-02-25T09:21:19.077Z,2.50
2023-02-25T09:23:47.146Z,1.25
2023-02-25T09:26:14.777Z,1.88
2023-02-25T09:28:41.969Z,2.08
2023-02-25T09:31:09.070Z,2.65
2023-02-25T09:33:37.527Z,2.05
2023-02-25T09:36:18.221Z,3.55
2023-02-25T09:38:47.274Z,3.17
2023-02-25T09:41:23.622Z,1.52
2023-02-25T09:44:01.285Z,1.17
2023-02-25T09:46:30.981Z,0.50
2023-02-25T09:49:07.497Z,5.00
2023-02-25T09:51:38.548Z,1.13
2023-02-25T09:54:22.849Z,0.65
2023-02-25T09:56:50.702Z,1.35
2023-02-25T09:59:21.809Z,1.67
2023-02-25T10:04:38.474Z,4.07
2023-02-25T10:07:19.373Z,6.80
2023-02-25T10:10:02.761Z,5.25
2023-02-25T10:12:39.401Z,7.38
2023-02-25T10:15:37.113Z,19.52
2023-02-25T10:18:19.383Z,19.25
2023-02-25T10:21:01.864Z,37.10
2023-02-25T10:23:40.815Z,19.63
2023-02-25T10:26:26.660Z,9.43
2023-02-25T10:29:07.642Z,7.90
2023-02-25T10:31:35.792Z,9.82
2023-02-25T10:34:23.488Z,8.57
2023-02-25T10:37:05.629Z,9.65
2023-02-25T10:39:33.295Z,5.75
2023-02-25T10:42:00.833Z,15.05
2023-02-25T10:44:27.993Z,9.15
2023-02-25T10:47:00.742Z,23.08
2023-02-25T10:49:30.767Z,19.58
2023-02-25T10:52:18.667Z,30.60
2023-02-25T10:54:53.507Z,13.57
2023-02-25T10:57:28.022Z,6.55
2023-02-25T11:00:06.901Z,5.65
2023-02-25T11:02:41.637Z,4.20
2023-02-25T11:05:37.144Z,7.65
2023-02-25T11:08:09.024Z,19.33
2023-02-25T11:10:36.224Z,29.27
2023-02-25T11:13:06.422Z,20.75
2023-02-25T11:15:46.131Z,13.82
2023-02-25T11:18:28.046Z,13.13
2023-02-25T11:20:58.308Z,22.75
2023-02-25T11:23:33.795Z,11.37
2023-02-25T11:26:00.833Z,35.58
2023-02-25T11:28:33.674Z,41.55
2023-02-25T11:31:21.168Z,61.17
2023-02-25T11:34:05.455Z,38.00
2023-02-25T11:36:38.791Z,31.23
2023-02-25T11:39:08.175Z,25.10
2023-02-25T11:41:35.307Z,26.88
2023-02-25T11:44:20.847Z,11.75
2023-02-25T11:47:21.264Z,21.25
2023-02-25T11:49:52.754Z,14.75
2023-02-25T11:52:26.343Z,8.27
2023-02-25T11:55:23.812Z,12.20
2023-02-25T11:58:18.197Z,19.10
2023-02-25T12:00:58.100Z,9.98
2023-02-25T12:03:33.957Z,6.30
2023-02-25T12:06:16.267Z,8.30
2023-02-25T12:09:17.628Z,10.48
2023-02-25T12:14:53.912Z,6.57
2023-02-25T12:17:48.686Z,8.13
2023-02-25T12:20:50.391Z,8.13
2023-02-25T12:23:41.807Z,46.00
2023-02-25T12:29:06.468Z,18.67
2023-02-25T12:34:22.893Z,31.75
2023-02-25T12:36:59.821Z,34.88
2023-02-25T12:39:26.678Z,23.83
2023-02-25T12:42:27.411Z,24.73
2023-02-25T12:45:24.382Z,17.83
2023-02-25T12:47:53.064Z,11.82
2023-02-25T12:50:34.333Z,10.60
2023-02-25T12:56:05.817Z,10.73
2023-02-25T12:58:48.031Z,11.35
2023-02-25T13:01:24.229Z,10.13
2023-02-25T13:04:01.811Z,13.50
2023-02-25T13:06:42.830Z,10.13
2023-02-25T13:09:32.958Z,46.35
2023-02-25T13:12:12.099Z,111.38
2023-02-25T13:14:58.354Z,118.07
2023-02-25T13:17:32.994Z,312.30
2023-02-25T13:20:37.363Z,348.90
2023-02-25T13:23:42.054Z,307.48
2023-02-25T13:26:28.547Z,318.75
2023-02-25T13:29:50.016Z,314.10
2023-02-25T13:32:32.193Z,272.30
2023-02-25T13:35:15.545Z,272.55
2023-02-25T13:38:28.633Z,282.48
2023-02-25T13:40:58.585Z,248.50
2023-02-25T13:44:02.552Z,210.80
2023-02-25T13:46:51.513Z,178.38
2023-02-25T13:49:57.413Z,155.30
2023-02-25T13:53:06.242Z,113.65
2023-02-25T13:55:41.978Z,105.18
2023-02-25T13:58:39.123Z,88.00
2023-02-25T14:01:43.885Z,89.28
2023-02-25T14:04:38.987Z,71.38
2023-02-25T14:07:11.735Z,68.68
2023-02-25T14:09:50.676Z,86.60
2023-02-25T14:12:54.638Z,70.32
2023-02-25T14:15:29.129Z,45.33
2023-02-25T14:18:13.962Z,37.13
2023-02-25T14:21:07.538Z,30.42
2023-02-25T14:23:56.364Z,30.88
2023-02-25T14:26:33.964Z,16.75
2023-02-25T14:29:31.709Z,22.25
2023-02-25T14:32:15.248Z,16.23
2023-02-25T14:35:03.899Z,13.43
2023-02-25T14:37:50.221Z,23.63
2023-02-25T14:40:23.160Z,14.93
2023-02-25T14:43:11.281Z,13.80
2023-02-25T14:45:42.067Z,14.10
2023-02-25T14:48:41.516Z,11.85
2023-02-25T14:51:35.812Z,27.20
2023-02-25T14:54:34.519Z,26.15
2023-02-25T14:57:20.654Z,14.48
2023-02-25T15:00:42.076Z,11.73
2023-02-25T15:03:30.155Z,16.35
2023-02-25T15:06:12.540Z,9.88
2023-02-25T15:08:57.813Z,11.07
2023-02-25T15:11:50.684Z,5.88
2023-02-25T15:14:36.106Z,6.03
2023-02-25T15:17:30.912Z,4.28
2023-02-25T15:20:10.357Z,6.85
2023-02-25T15:22:42.163Z,6.47
2023-02-25T15:25:21.499Z,2.53
2023-02-25T15:27:51.645Z,2.50
2023-02-25T15:30:24.224Z,3.65
2023-02-25T15:32:51.322Z,26.77
2023-02-25T15:35:43.809Z,13.07
2023-02-25T15:38:18.486Z,14.73
2023-02-25T15:40:51.344Z,61.50
2023-02-25T15:43:18.255Z,31.63
2023-02-25T15:46:14.585Z,40.58
2023-02-25T15:48:42.873Z,20.65
2023-02-25T15:51:14.476Z,17.10
2023-02-25T15:53:42.937Z,36.05
2023-02-25T15:56:12.551Z,14.85
2023-02-25T15:58:53.680Z,29.30
2023-02-25T16:01:28.352Z,33.05
2023-02-25T16:03:55.769Z,21.38
2023-02-25T16:06:25.820Z,15.73
2023-02-25T16:09:15.990Z,45.60
2023-02-25T16:11:42.961Z,24.08
2023-02-25T16:14:21.667Z,18.70
2023-02-25T16:17:00.439Z,10.25
2023-02-25T16:19:33.657Z,7.10
2023-02-25T16:22:02.274Z,7.35
2023-02-25T16:24:29.829Z,5.90
2023-02-25T16:27:15.514Z,9.63
2023-02-25T16:30:03.891Z,6.22
2023-02-25T16:32:54.604Z,25.98
2023-02-25T16:36:06.781Z,10.07
2023-02-25T16:38:40.575Z,10.27
2023-02-25T16:41:07.704Z,11.82
2023-02-25T16:43:38.805Z,10.55
2023-02-25T16:48:50.515Z,7.88
2023-02-25T16:51:42.730Z,6.40
2023-02-25T16:54:18.045Z,6.30
2023-02-25T16:56:47.523Z,12.57
2023-02-25T16:59:14.445Z,9.38
2023-02-25T17:02:22.222Z,6.72
2023-02-25T17:04:51.931Z,5.35
2023-02-25T17:07:30.532Z,12.15
2023-02-25T17:10:04.187Z,18.33
2023-02-25T17:12:45.921Z,23.42
2023-02-25T17:15:27.101Z,11.95
2023-02-25T17:20:44.508Z,16.55
2023-02-25T17:23:14.582Z,15.90
2023-02-25T17:25:49.518Z,10.18
2023-02-25T17:28:26.364Z,8.90
2023-02-25T17:31:03.463Z,16.40
2023-02-25T17:33:35.057Z,18.30
2023-02-25T17:36:15.414Z,34.70
2023-02-25T17:38:44.512Z,49.07
2023-02-25T17:41:22.608Z,31.20
2023-02-25T17:43:50.127Z,66.63
2023-02-25T17:46:44.774Z,29.13
2023-02-25T17:49:30.520Z,45.45
2023-02-25T17:52:06.429Z,22.42
2023-02-25T17:54:36.309Z,17.52
2023-02-25T17:57:10.469Z,17.35
2023-02-25T17:59:42.119Z,16.30
2023-02-25T18:02:27.985Z,18.98
2023-02-25T18:05:13.322Z,15.02
2023-02-25T18:07:45.158Z,12.18
2023-02-25T18:10:27.053Z,9.88
2023-02-25T18:12:55.645Z,10.70
2023-02-25T18:15:26.720Z,14.18
2023-02-25T18:20:37.814Z,12.05
2023-02-25T18:23:18.652Z,15.18
2023-02-25T18:25:48.509Z,12.52
2023-02-25T18:28:18.597Z,13.90
2023-02-25T18:30:46.241Z,12.10
2023-02-25T18:33:13.625Z,11.38
2023-02-25T18:35:44.033Z,7.85
2023-02-25T18:38:18.805Z,19.90
2023-02-25T18:40:46.622Z,7.53
2023-02-25T18:43:18.303Z,8.45
2023-02-25T18:45:46.297Z,4.22
2023-02-25T18:48:14.819Z,6.68
2023-02-25T18:50:44.996Z,3.92
2023-02-25T18:53:17.824Z,10.25
2023-02-25T18:55:44.804Z,7.20
2023-02-25T18:58:17.120Z,5.18
2023-02-25T19:00:47.088Z,8.25
2023-02-25T19:03:20.128Z,5.00
2023-02-25T19:05:47.407Z,2.92
2023-02-25T19:08:16.402Z,3.58
2023-02-25T19:10:44.863Z,6.95
2023-02-25T19:13:19.282Z,7.28
2023-02-25T19:15:46.943Z,5.30
2023-02-25T19:18:15.658Z,4.57
2023-02-25T19:20:44.597Z,2.03
2023-02-25T19:23:13.766Z,2.30
2023-02-25T19:25:42.412Z,5.55
2023-02-25T19:28:10.350Z,22.33
2023-02-25T19:30:40.718Z,11.57
2023-02-25T19:33:10.341Z,9.98
2023-02-25T19:35:43.083Z,6.75
2023-02-25T19:38:15.662Z,13.35
2023-02-25T19:40:47.373Z,8.32
2023-02-25T19:43:18.097Z,15.68
2023-02-25T19:45:45.454Z,24.85
2023-02-25T19:48:12.539Z,20.10
2023-02-25T19:50:42.024Z,13.20
2023-02-25T19:53:10.639Z,19.08
2023-02-25T19:55:39.452Z,18.70
2023-02-25T19:58:06.574Z,11.27
2023-02-25T20:00:35.089Z,8.95
2023-02-25T20:03:07.337Z,15.90
2023-02-25T20:05:35.347Z,13.15
2023-02-25T20:08:02.786Z,6.60
2023-02-25T20:10:29.994Z,30.70
2023-02-25T20:12:57.248Z,44.50
2023-02-25T20:15:24.771Z,50.58
2023-02-25T20:17:55.425Z,76.32
2023-02-25T20:20:23.543Z,44.55
2023-02-25T20:22:56.782Z,61.65
2023-02-25T20:25:24.740Z,57.38
2023-02-25T20:27:53.604Z,53.08
2023-02-25T20:30:24.268Z,54.63
2023-02-25T20:32:52.613Z,56.65
2023-02-25T20:35:21.833Z,60.75
2023-02-25T20:38:39.064Z,48.45
2023-02-25T20:41:07.289Z,56.03
2023-02-25T20:43:34.577Z,40.75
2023-02-25T20:46:02.450Z,36.53
2023-02-25T20:48:33.095Z,37.75
2023-02-25T20:51:02.945Z,29.23
2023-02-25T20:53:31.120Z,28.75
2023-02-25T20:55:59.354Z,27.20
2023-02-25T20:58:26.670Z,28.58
2023-02-25T21:00:54.664Z,29.15
2023-02-25T21:03:25.487Z,30.80
2023-02-25T21:05:53.232Z,23.67
2023-02-25T21:08:21.345Z,17.27
2023-02-25T21:10:48.655Z,22.80
2023-02-25T21:13:16.893Z,14.77
2023-02-25T21:15:44.192Z,17.77
2023-02-25T21:18:11.445Z,18.20
2023-02-25T21:20:41.469Z,13.63
2023-02-25T21:23:11.330Z,12.52
2023-02-25T21:25:38.452Z,13.10
2023-02-25T21:28:05.772Z,11.73
2023-02-25T21:30:33.609Z,10.77
2023-02-25T21:33:01.340Z,9.30
2023-02-25T21:35:28.839Z,8.60
2023-02-25T21:37:56.875Z,9.18
2023-02-25T21:40:25.372Z,7.00
2023-02-25T21:42:52.488Z,12.35
2023-02-25T21:45:19.573Z,4.78
2023-02-25T21:47:48.130Z,4.82
2023-02-25T21:50:15.132Z,5.40
2023-02-25T21:52:42.282Z,4.78
2023-02-25T21:55:10.149Z,3.60
2023-02-25T21:57:38.741Z,4.03
2023-02-25T22:00:07.862Z,5.60
2023-02-25T22:02:34.978Z,2.40
2023-02-25T22:05:01.985Z,6.82
2023-02-25T22:07:29.022Z,3.22
2023-02-25T22:09:57.855Z,7.30
2023-02-25T22:12:25.428Z,2.10
2023-02-25T22:14:52.721Z,3.42
2023-02-25T22:17:19.813Z,2.33
2023-02-25T22:19:48.058Z,5.57
2023-02-25T22:22:15.676Z,17.45
2023-02-25T22:24:42.776Z,8.07
2023-02-25T22:27:09.889Z,7.10
2023-02-25T22:29:36.792Z,28.52
2023-02-25T22:32:03.967Z,30.00
2023-02-25T22:34:30.922Z,14.70
2023-02-25T22:36:59.282Z,21.05
2023-02-25T22:39:26.400Z,12.98
2023-02-25T22:41:53.493Z,11.68
2023-02-25T22:44:20.735Z,4.18
2023-02-25T22:46:48.193Z,2.17
2023-02-25T22:49:15.758Z,2.53
2023-02-25T22:51:44.927Z,4.22
2023-02-25T22:54:14.444Z,4.88
2023-02-25T22:56:43.075Z,3.08
2023-02-25T22:59:10.733Z,3.13
2023-02-25T23:01:38.437Z,3.28
2023-02-25T23:04:08.713Z,4.80
2023-02-25T23:06:44.134Z,7.55
2023-02-25T23:09:13.414Z,5.55
2023-02-25T23:11:41.842Z,5.25
2023-02-25T23:14:08.770Z,4.05
2023-02-25T23:16:40.858Z,3.45
2023-02-25T23:19:10.234Z,5.00
2023-02-25T23:21:38.948Z,4.85
2023-02-25T23:24:11.095Z,4.47
2023-02-25T23:26:41.525Z,2.20
2023-02-25T23:29:10.306Z,1.63
2023-02-25T23:31:41.862Z,3.15
2023-02-25T23:34:12.222Z,2.15
2023-02-25T23:36:40.837Z,1.90
2023-02-25T23:39:08.746Z,1.52
2023-02-25T23:41:37.452Z,1.10
2023-02-25T23:44:06.094Z,1.15
2023-02-25T23:46:33.445Z,3.10
2023-02-25T23:49:03.058Z,1.98
2023-02-25T23:51:30.612Z,0.93
2023-02-25T23:54:01.045Z,2.63
2023-02-25T23:56:30.008Z,2.67
2023-02-25T23:58:57.545Z,1.75
